createdAt,value
2017-11-28T00:01:58.141Z,73.10
2017-11-28T00:04:24.418Z,72.70
2017-11-28T00:06:50.706Z,72.70
2017-11-28T00:09:17.882Z,72.70
2017-11-28T00:11:44.037Z,72.70
2017-11-28T00:14:10.160Z,72.70
2017-11-28T00:16:36.323Z,72.20
2017-11-28T00:19:03.734Z,72.80
2017-11-28T00:21:30.636Z,72.80
2017-11-28T00:23:56.983Z,72.70
2017-11-28T00:26:23.355Z,72.10
2017-11-28T00:28:49.809Z,72.30
2017-11-28T00:31:16.657Z,72.60
2017-11-28T00:33:42.741Z,72.70
2017-11-28T00:36:08.853Z,72.70
2017-11-28T00:38:35.185Z,72.60
2017-11-28T00:41:01.512Z,72.70
2017-11-28T00:43:27.841Z,72.60
2017-11-28T00:45:54.279Z,72.60
2017-11-28T00:48:20.389Z,71.80
2017-11-28T00:50:46.749Z,72.30
2017-11-28T00:53:13.487Z,72.60
2017-11-28T00:55:39.835Z,72.50
2017-11-28T00:58:06.571Z,72.60
2017-11-28T01:00:35.958Z,73.60
2017-11-28T01:03:02.085Z,73.70
2017-11-28T01:05:28.197Z,72.30
2017-11-28T01:07:54.257Z,72.80
2017-11-28T01:10:21.379Z,72.50
2017-11-28T01:12:47.501Z,72.00
2017-11-28T01:15:13.599Z,71.90
2017-11-28T01:17:40.518Z,72.30
2017-11-28T01:20:06.610Z,72.20
2017-11-28T01:22:39.580Z,71.90
2017-11-28T01:25:05.745Z,72.00
2017-11-28T01:27:32.589Z,71.10
2017-11-28T01:29:59.421Z,71.60
2017-11-28T01:32:25.554Z,71.50
2017-11-28T01:34:51.722Z,71.80
2017-11-28T01:37:17.977Z,71.90
2017-11-28T01:39:44.818Z,71.30
2017-11-28T01:42:11.645Z,71.70
2017-11-28T01:44:38.197Z,71.00
2017-11-28T01:47:04.323Z,71.00
2017-11-28T01:49:30.406Z,71.20
2017-11-28T01:51:57.247Z,71.60
2017-11-28T01:54:23.798Z,71.50
2017-11-28T01:56:50.695Z,71.90
2017-11-28T01:59:16.796Z,71.90
2017-11-28T02:01:43.637Z,71.30
2017-11-28T02:04:10.182Z,71.40
2017-11-28T02:06:37.017Z,71.30
2017-11-28T02:09:03.123Z,71.20
2017-11-28T02:11:29.607Z,70.80
2017-11-28T02:13:55.705Z,70.80
2017-11-28T02:16:21.906Z,71.70
2017-11-28T02:18:48.033Z,72.40
2017-11-28T02:21:17.032Z,72.10
2017-11-28T02:23:43.153Z,72.00
2017-11-28T02:26:09.308Z,71.20
2017-11-28T02:28:36.154Z,71.50
2017-11-28T02:31:02.254Z,71.10
2017-11-28T02:33:28.357Z,71.50
2017-11-28T02:35:54.465Z,71.60
2017-11-28T02:38:20.549Z,71.70
2017-11-28T02:40:59.822Z,71.50
2017-11-28T02:43:26.014Z,71.50
2017-11-28T02:45:52.132Z,70.70
2017-11-28T02:48:18.316Z,70.80
2017-11-28T02:50:44.860Z,70.50
2017-11-28T02:53:11.061Z,71.20
2017-11-28T02:55:40.041Z,71.10
2017-11-28T02:58:16.090Z,71.20
2017-11-28T03:00:44.783Z,71.10
2017-11-28T03:03:10.870Z,71.00
2017-11-28T03:05:36.946Z,71.20
2017-11-28T03:08:03.037Z,71.70
2017-11-28T03:10:30.142Z,71.90
2017-11-28T03:12:56.446Z,71.10
2017-11-28T03:15:25.647Z,70.80
2017-11-28T03:17:51.961Z,70.90
2017-11-28T03:23:32.527Z,71.40
2017-11-28T03:25:58.827Z,71.90
2017-11-28T03:28:30.231Z,71.60
2017-11-28T03:31:13.463Z,71.50
2017-11-28T03:33:39.765Z,71.60
2017-11-28T03:36:06.232Z,71.50
2017-11-28T03:38:34.179Z,72.60
2017-11-28T03:41:01.215Z,72.00
2017-11-28T03:43:28.275Z,72.20
2017-11-28T03:45:56.428Z,72.10
2017-11-28T03:48:22.730Z,71.60
2017-11-28T03:50:49.046Z,71.50
2017-11-28T03:53:15.323Z,72.20
2017-11-28T03:55:41.636Z,72.00
2017-11-28T03:58:07.980Z,72.60
2017-11-28T04:00:35.038Z,71.60
2017-11-28T04:03:01.326Z,70.90
2017-11-28T04:05:27.697Z,71.30
2017-11-28T04:07:54.210Z,71.10
2017-11-28T04:10:20.523Z,70.70
2017-11-28T04:12:46.851Z,70.80
2017-11-28T04:15:13.237Z,71.00
2017-11-28T04:17:39.557Z,71.20
2017-11-28T04:20:06.851Z,71.20
2017-11-28T04:22:33.154Z,71.10
2017-11-28T04:24:59.445Z,71.20
2017-11-28T04:27:25.774Z,72.00
2017-11-28T04:29:52.091Z,72.30
2017-11-28T04:32:18.592Z,71.50
2017-11-28T04:34:44.902Z,71.70
2017-11-28T04:37:11.212Z,71.90
2017-11-28T04:39:37.719Z,72.00
2017-11-28T04:42:04.113Z,72.00
2017-11-28T04:44:30.498Z,71.40
2017-11-28T04:46:56.939Z,72.30
2017-11-28T04:49:24.276Z,71.50
2017-11-28T04:51:51.373Z,70.80
2017-11-28T04:54:17.769Z,70.80
2017-11-28T04:56:46.102Z,71.10
2017-11-28T04:59:12.438Z,71.10
2017-11-28T05:01:39.857Z,71.90
2017-11-28T05:04:06.894Z,71.70
2017-11-28T05:06:33.270Z,71.60
2017-11-28T05:08:59.695Z,71.70
2017-11-28T05:11:26.722Z,71.90
2017-11-28T05:13:53.032Z,72.00
2017-11-28T05:16:20.110Z,71.10
2017-11-28T05:18:46.216Z,71.00
2017-11-28T05:21:12.537Z,70.30
2017-11-28T05:23:38.848Z,70.50
2017-11-28T05:26:05.441Z,70.60
2017-11-28T05:28:31.899Z,70.80
2017-11-28T05:30:58.191Z,71.10
2017-11-28T05:33:24.691Z,71.00
2017-11-28T05:35:51.769Z,71.40
2017-11-28T05:38:18.031Z,71.30
2017-11-28T05:40:44.403Z,71.70
2017-11-28T05:43:10.763Z,71.30
2017-11-28T05:45:37.869Z,70.90
2017-11-28T05:48:04.199Z,71.40
2017-11-28T05:50:31.309Z,70.40
2017-11-28T05:52:57.522Z,70.50
2017-11-28T05:55:24.465Z,71.10
2017-11-28T05:57:50.592Z,71.20
2017-11-28T06:00:17.525Z,70.70
2017-11-28T06:02:43.689Z,70.70
2017-11-28T06:05:09.831Z,71.30
2017-11-28T06:07:36.701Z,71.10
2017-11-28T06:10:02.822Z,71.10
2017-11-28T06:12:29.720Z,70.90
2017-11-28T06:14:56.744Z,70.50
2017-11-28T06:17:22.878Z,70.50
2017-11-28T06:19:49.029Z,70.10
2017-11-28T06:22:15.626Z,71.20
2017-11-28T06:24:42.175Z,70.20
2017-11-28T06:27:08.297Z,70.10
2017-11-28T06:29:34.498Z,70.20
2017-11-28T06:32:00.840Z,70.30
2017-11-28T06:34:27.837Z,70.20
2017-11-28T06:36:54.161Z,70.20
2017-11-28T06:42:09.959Z,69.50
2017-11-28T06:44:36.145Z,70.30
2017-11-28T06:47:02.308Z,69.90
2017-11-28T06:49:29.041Z,69.40
2017-11-28T06:51:55.147Z,69.90
2017-11-28T06:54:22.883Z,69.90
2017-11-28T06:56:50.769Z,69.80
2017-11-28T06:59:16.991Z,69.70
2017-11-28T07:01:43.105Z,69.50
2017-11-28T07:04:09.249Z,69.90
2017-11-28T07:06:35.505Z,70.10
2017-11-28T07:09:01.664Z,70.30
2017-11-28T07:11:27.777Z,70.30
2017-11-28T07:13:53.960Z,71.20
2017-11-28T07:16:21.024Z,70.30
2017-11-28T07:18:47.217Z,70.40
2017-11-28T07:21:13.354Z,70.40
2017-11-28T07:23:39.467Z,71.10
2017-11-28T07:26:05.617Z,71.30
2017-11-28T07:28:31.758Z,70.70
2017-11-28T07:30:57.973Z,70.50
2017-11-28T07:33:24.409Z,70.60
2017-11-28T07:35:50.523Z,71.50
2017-11-28T07:38:17.423Z,70.80
2017-11-28T07:40:43.520Z,70.80
2017-11-28T07:43:10.437Z,71.30
2017-11-28T07:45:36.598Z,71.60
2017-11-28T07:48:02.736Z,70.80
2017-11-28T07:50:28.946Z,70.60
2017-11-28T07:52:55.095Z,71.30
2017-11-28T07:55:21.288Z,70.60
2017-11-28T07:57:48.302Z,70.50
2017-11-28T08:00:14.442Z,70.40
2017-11-28T08:02:40.546Z,70.20
2017-11-28T08:05:06.682Z,70.50
2017-11-28T08:07:33.062Z,70.20
2017-11-28T08:09:59.458Z,70.70
2017-11-28T08:12:26.419Z,70.50
2017-11-28T08:14:52.547Z,70.50
2017-11-28T08:17:19.418Z,70.60
2017-11-28T08:19:46.409Z,70.40
2017-11-28T08:22:12.703Z,70.40
2017-11-28T08:24:39.056Z,70.30
2017-11-28T08:27:12.722Z,70.50
2017-11-28T08:29:39.577Z,70.90
2017-11-28T08:32:05.706Z,70.80
2017-11-28T08:34:31.840Z,70.70
2017-11-28T08:36:57.970Z,71.00
2017-11-28T08:39:24.391Z,70.00
2017-11-28T08:41:56.157Z,71.00
2017-11-28T08:44:22.363Z,70.90
2017-11-28T08:46:48.649Z,70.30
2017-11-28T08:49:14.912Z,69.90
2017-11-28T08:51:41.044Z,70.30
2017-11-28T08:54:07.326Z,70.10
2017-11-28T08:56:33.449Z,70.10
2017-11-28T08:59:05.509Z,70.70
2017-11-28T09:01:32.384Z,70.80
2017-11-28T09:03:58.533Z,70.60
2017-11-28T09:06:24.678Z,69.60
2017-11-28T09:08:50.781Z,69.40
2017-11-28T09:11:17.634Z,69.80
2017-11-28T09:13:43.766Z,69.80
2017-11-28T09:16:11.303Z,70.10
2017-11-28T09:18:37.452Z,69.80
2017-11-28T09:21:04.350Z,69.50
2017-11-28T09:23:30.641Z,69.50
2017-11-28T09:25:57.762Z,69.70
2017-11-28T09:28:23.912Z,69.70
2017-11-28T09:30:50.021Z,69.40
2017-11-28T09:33:16.168Z,69.90
2017-11-28T09:35:44.161Z,69.40
2017-11-28T09:38:10.773Z,70.20
2017-11-28T09:40:36.920Z,70.00
2017-11-28T09:43:03.124Z,70.10
2017-11-28T09:45:30.006Z,70.00
2017-11-28T09:47:56.143Z,70.00
2017-11-28T09:50:22.856Z,69.90
2017-11-28T09:52:54.994Z,69.20
2017-11-28T09:55:21.493Z,69.10
2017-11-28T09:57:47.687Z,69.50
2017-11-28T10:00:13.825Z,69.60
2017-11-28T10:02:39.983Z,69.60
2017-11-28T10:05:06.146Z,69.50
2017-11-28T10:07:35.657Z,69.10
2017-11-28T10:10:03.140Z,69.70
2017-11-28T10:12:29.309Z,69.10
2017-11-28T10:14:55.433Z,69.70
2017-11-28T10:17:21.556Z,69.60
2017-11-28T10:19:48.436Z,70.40
2017-11-28T10:22:14.551Z,69.80
2017-11-28T10:24:47.629Z,69.50
2017-11-28T10:27:14.660Z,68.60
2017-11-28T10:29:40.822Z,68.60
2017-11-28T10:32:06.967Z,68.90
2017-11-28T10:34:33.228Z,69.10
2017-11-28T10:36:59.350Z,68.70
2017-11-28T10:39:25.473Z,69.20
2017-11-28T10:41:55.528Z,69.80
2017-11-28T10:44:21.636Z,69.20
2017-11-28T10:46:47.751Z,69.70
2017-11-28T10:49:14.608Z,70.20
2017-11-28T10:51:40.736Z,70.00
2017-11-28T10:54:06.841Z,68.80
2017-11-28T10:56:33.766Z,69.00
2017-11-28T10:59:02.316Z,69.00
2017-11-28T11:01:28.499Z,69.60
2017-11-28T11:03:54.644Z,69.10
2017-11-28T11:06:20.771Z,68.70
2017-11-28T11:08:46.911Z,68.70
2017-11-28T11:11:14.058Z,68.40
2017-11-28T11:13:40.311Z,68.50
2017-11-28T11:16:10.476Z,69.00
2017-11-28T11:18:36.655Z,69.30
2017-11-28T11:21:03.581Z,68.70
2017-11-28T11:23:29.681Z,68.60
2017-11-28T11:25:55.815Z,69.40
2017-11-28T11:28:21.995Z,69.30
2017-11-28T11:30:49.212Z,69.10
2017-11-28T11:33:18.789Z,69.10
2017-11-28T11:35:44.969Z,69.90
2017-11-28T11:38:11.068Z,68.60
2017-11-28T11:40:37.921Z,68.10
2017-11-28T11:43:04.057Z,68.10
2017-11-28T11:45:30.193Z,68.10
2017-11-28T11:47:56.321Z,68.10
2017-11-28T11:50:22.491Z,68.00
2017-11-28T11:55:19.712Z,68.00
2017-11-28T11:57:45.835Z,68.10
2017-11-28T12:00:12.996Z,67.60
2017-11-28T12:02:39.888Z,68.10
2017-11-28T12:05:07.040Z,68.70
2017-11-28T12:07:33.176Z,68.70
2017-11-28T12:10:04.181Z,68.20
2017-11-28T12:12:30.285Z,67.60
2017-11-28T12:14:56.464Z,68.20
2017-11-28T12:17:22.626Z,67.40
2017-11-28T12:19:48.789Z,67.40
2017-11-28T12:22:14.904Z,67.60
2017-11-28T12:24:41.077Z,66.60
2017-11-28T12:27:07.218Z,66.80
2017-11-28T12:32:04.450Z,65.80
2017-11-28T12:34:30.629Z,66.80
2017-11-28T12:36:57.491Z,65.80
2017-11-28T12:39:24.349Z,66.80
2017-11-28T12:41:50.468Z,66.80
2017-11-28T12:44:16.706Z,66.10
2017-11-28T12:46:45.768Z,67.30
2017-11-28T12:49:12.854Z,67.50
2017-11-28T12:51:39.205Z,67.50
2017-11-28T12:54:06.417Z,65.90
2017-11-28T12:56:32.762Z,65.80
2017-11-28T12:58:59.090Z,66.00
2017-11-28T13:01:25.554Z,65.10
2017-11-28T13:03:57.122Z,64.50
2017-11-28T13:06:23.448Z,65.30
2017-11-28T13:08:49.767Z,64.10
2017-11-28T13:11:16.113Z,63.70
2017-11-28T13:13:42.508Z,65.10
2017-11-28T13:16:08.812Z,64.80
2017-11-28T13:18:35.370Z,65.00
2017-11-28T13:21:01.776Z,65.40
2017-11-28T13:23:35.705Z,65.20
2017-11-28T13:26:02.476Z,65.50
2017-11-28T13:28:28.839Z,64.40
2017-11-28T13:30:55.149Z,64.60
2017-11-28T13:33:22.203Z,65.50
2017-11-28T13:35:48.526Z,65.50
2017-11-28T13:38:16.692Z,64.70
2017-11-28T13:40:44.950Z,64.40
2017-11-28T13:43:11.296Z,64.90
2017-11-28T13:45:37.631Z,65.30
2017-11-28T13:48:04.686Z,64.80
2017-11-28T13:50:31.011Z,64.80
2017-11-28T13:52:57.369Z,66.30
2017-11-28T13:55:31.155Z,65.20
2017-11-28T13:57:57.516Z,64.70
2017-11-28T14:00:23.858Z,64.80
2017-11-28T14:02:50.222Z,65.20
2017-11-28T14:05:16.567Z,64.40
2017-11-28T14:07:43.687Z,64.10
2017-11-28T14:10:16.243Z,64.10
2017-11-28T14:12:43.285Z,64.40
2017-11-28T14:15:09.599Z,64.50
2017-11-28T14:17:36.630Z,64.10
2017-11-28T14:20:05.963Z,64.10
2017-11-28T14:22:33.194Z,64.00
2017-11-28T14:28:08.825Z,63.80
2017-11-28T14:30:38.231Z,63.60
2017-11-28T14:33:04.702Z,63.50
2017-11-28T14:35:52.626Z,63.50
2017-11-28T14:38:18.993Z,63.50
2017-11-28T14:40:45.467Z,64.40
2017-11-28T14:43:16.310Z,64.20
2017-11-28T14:45:43.673Z,65.00
2017-11-28T14:48:10.110Z,64.80
2017-11-28T14:50:42.489Z,65.10
2017-11-28T14:53:08.818Z,65.10
2017-11-28T14:55:42.022Z,64.80
2017-11-28T14:58:08.436Z,64.70
2017-11-28T15:00:42.711Z,65.00
2017-11-28T15:03:15.242Z,65.00
2017-11-28T15:05:50.405Z,64.90
2017-11-28T15:08:22.979Z,65.40
2017-11-28T15:10:53.986Z,64.90
2017-11-28T15:16:00.656Z,64.50
2017-11-28T15:18:32.839Z,65.30
2017-11-28T15:21:04.261Z,65.00
2017-11-28T15:23:55.417Z,65.30
2017-11-28T15:26:21.761Z,65.40
2017-11-28T15:28:57.039Z,65.50
2017-11-28T15:31:23.574Z,65.80
2017-11-28T15:33:51.555Z,66.10
2017-11-28T15:36:17.863Z,66.00
2017-11-28T15:38:44.165Z,65.90
2017-11-28T15:41:10.475Z,65.70
2017-11-28T15:43:42.727Z,66.10
2017-11-28T15:46:09.791Z,66.50
2017-11-28T15:48:36.238Z,66.50
2017-11-28T15:51:02.717Z,65.80
2017-11-28T15:53:29.046Z,66.70
2017-11-28T15:55:55.437Z,66.80
2017-11-28T15:58:21.850Z,66.80
2017-11-28T16:00:57.723Z,67.00
2017-11-28T16:03:24.406Z,66.10
2017-11-28T16:05:54.034Z,66.50
2017-11-28T16:08:20.433Z,66.50
2017-11-28T16:10:47.041Z,65.50
2017-11-28T16:13:13.478Z,65.30
2017-11-28T16:15:39.869Z,66.00
2017-11-28T16:18:06.242Z,65.80
2017-11-28T16:20:32.639Z,65.90
2017-11-28T16:22:59.014Z,66.20
2017-11-28T16:25:26.058Z,65.20
2017-11-28T16:27:52.640Z,65.10
2017-11-28T16:30:19.085Z,66.40
2017-11-28T16:32:45.506Z,67.80
2017-11-28T16:35:12.608Z,68.40
2017-11-28T16:37:38.919Z,67.80
2017-11-28T16:40:05.994Z,67.70
2017-11-28T16:42:33.249Z,67.10
2017-11-28T16:45:00.297Z,67.80
2017-11-28T16:47:26.623Z,67.80
2017-11-28T16:49:53.815Z,68.60
2017-11-28T16:52:20.133Z,68.60
2017-11-28T16:54:46.512Z,68.40
2017-11-28T17:00:09.131Z,69.00
2017-11-28T17:02:35.254Z,69.30
2017-11-28T17:05:01.364Z,69.60
2017-11-28T17:07:27.510Z,69.00
2017-11-28T17:09:53.798Z,68.90
2017-11-28T17:12:22.888Z,68.10
2017-11-28T17:14:49.825Z,69.00
2017-11-28T17:17:16.297Z,69.00
2017-11-28T17:19:42.497Z,68.80
2017-11-28T17:22:08.825Z,69.60
2017-11-28T17:24:34.959Z,69.50
2017-11-28T17:27:01.119Z,69.70
2017-11-28T17:29:32.170Z,69.80
2017-11-28T17:31:59.022Z,69.70
2017-11-28T17:34:25.249Z,69.70
2017-11-28T17:36:51.377Z,69.10
2017-11-28T17:39:18.225Z,68.60
2017-11-28T17:41:45.382Z,68.00
2017-11-28T17:44:17.361Z,68.00
2017-11-28T17:46:43.676Z,67.90
2017-11-28T17:49:10.737Z,68.20
2017-11-28T17:51:37.174Z,68.20
2017-11-28T17:54:03.692Z,68.80
2017-11-28T17:56:30.189Z,68.80
2017-11-28T17:59:00.982Z,69.50
2017-11-28T18:01:27.307Z,69.40
2017-11-28T18:03:53.626Z,69.50
2017-11-28T18:06:20.035Z,69.30
2017-11-28T18:08:46.376Z,69.90
2017-11-28T18:11:12.699Z,69.20
2017-11-28T18:13:39.015Z,69.80
2017-11-28T18:16:06.114Z,69.30
2017-11-28T18:18:32.686Z,69.60
2017-11-28T18:20:59.084Z,69.30
2017-11-28T18:23:25.514Z,69.40
2017-11-28T18:25:51.846Z,70.20
2017-11-28T18:28:18.159Z,68.80
2017-11-28T18:30:44.543Z,69.80
2017-11-28T18:33:11.121Z,69.60
2017-11-28T18:35:37.489Z,69.90
2017-11-28T18:38:03.985Z,69.80
2017-11-28T18:40:30.369Z,69.70
2017-11-28T18:42:56.717Z,69.80
2017-11-28T18:45:23.089Z,70.00
2017-11-28T18:47:50.235Z,70.00
2017-11-28T18:50:16.566Z,69.90
2017-11-28T18:53:02.066Z,69.90
2017-11-28T18:55:28.505Z,69.60
2017-11-28T18:58:04.521Z,69.90
2017-11-28T19:00:35.100Z,70.50
2017-11-28T19:03:02.188Z,70.70
2017-11-28T19:05:28.588Z,70.70
2017-11-28T19:07:55.005Z,70.90
2017-11-28T19:10:21.360Z,70.70
2017-11-28T19:12:47.769Z,69.80
2017-11-28T19:15:14.102Z,69.70
2017-11-28T19:17:40.455Z,70.70
2017-11-28T19:20:07.138Z,71.50
2017-11-28T19:22:33.499Z,71.00
2017-11-28T19:24:59.813Z,71.50
2017-11-28T19:27:26.199Z,71.50
2017-11-28T19:29:52.555Z,71.70
2017-11-28T19:32:20.824Z,72.20
2017-11-28T19:34:47.163Z,72.20
2017-11-28T19:37:13.523Z,72.60
2017-11-28T19:39:39.847Z,72.60
2017-11-28T19:42:06.190Z,73.10
2017-11-28T19:44:32.624Z,73.60
2017-11-28T19:46:58.956Z,74.00
2017-11-28T19:49:26.335Z,73.20
2017-11-28T19:51:52.665Z,72.60
2017-11-28T19:54:19.045Z,72.40
2017-11-28T19:56:46.106Z,72.10
2017-11-28T19:59:12.499Z,72.20
2017-11-28T20:01:38.865Z,71.80
2017-11-28T20:04:05.958Z,71.80
2017-11-28T20:06:32.270Z,72.40
2017-11-28T20:08:58.599Z,71.70
2017-11-28T20:11:25.025Z,71.90
2017-11-28T20:13:51.350Z,72.00
2017-11-28T20:16:17.667Z,71.70
2017-11-28T20:18:44.736Z,71.20
2017-11-28T20:21:11.813Z,70.80
2017-11-28T20:23:38.145Z,70.80
2017-11-28T20:26:04.468Z,71.30
2017-11-28T20:28:30.778Z,71.20
2017-11-28T20:30:57.110Z,71.80
2017-11-28T20:33:23.673Z,71.80
2017-11-28T20:35:50.592Z,71.80
2017-11-28T20:38:16.930Z,71.80
2017-11-28T20:40:43.247Z,71.10
2017-11-28T20:43:10.447Z,70.90
2017-11-28T20:45:36.845Z,70.90
2017-11-28T20:48:03.139Z,70.60
2017-11-28T20:50:29.440Z,70.60
2017-11-28T20:52:55.749Z,70.40
2017-11-28T20:55:22.165Z,70.90
2017-11-28T20:57:48.606Z,70.90
2017-11-28T21:00:14.961Z,71.40
2017-11-28T21:02:41.327Z,70.20
2017-11-28T21:05:07.632Z,70.60
2017-11-28T21:07:33.917Z,69.90
2017-11-28T21:10:00.229Z,70.60
2017-11-28T21:12:26.542Z,70.40
2017-11-28T21:14:52.869Z,71.20
2017-11-28T21:17:19.762Z,70.30
2017-11-28T21:19:46.110Z,69.50
2017-11-28T21:22:12.470Z,68.80
2017-11-28T21:24:38.765Z,68.40
2017-11-28T21:27:05.081Z,68.70
2017-11-28T21:29:31.435Z,68.30
2017-11-28T21:31:57.814Z,67.90
2017-11-28T21:34:24.666Z,68.20
2017-11-28T21:36:51.021Z,68.20
2017-11-28T21:39:17.350Z,68.40
2017-11-28T21:41:44.415Z,68.30
2017-11-28T21:44:10.794Z,68.20
2017-11-28T21:46:37.178Z,67.60
2017-11-28T21:49:03.503Z,68.10
2017-11-28T21:51:29.958Z,68.00
2017-11-28T21:53:56.322Z,68.00
2017-11-28T21:56:22.740Z,68.30
2017-11-28T21:58:49.070Z,67.50
2017-11-28T22:01:15.391Z,68.20
2017-11-28T22:03:41.763Z,68.00
2017-11-28T22:06:08.137Z,69.10
2017-11-28T22:08:34.586Z,67.80
2017-11-28T22:11:01.320Z,68.40
2017-11-28T22:13:28.387Z,69.20
2017-11-28T22:15:54.765Z,69.00
2017-11-28T22:18:21.897Z,68.60
2017-11-28T22:20:49.018Z,68.50
2017-11-28T22:23:15.342Z,68.40
2017-11-28T22:25:41.582Z,68.20
2017-11-28T22:28:07.885Z,68.60
2017-11-28T22:30:34.935Z,68.70
2017-11-28T22:33:02.016Z,68.60
2017-11-28T22:35:28.518Z,68.60
2017-11-28T22:37:54.985Z,68.90
2017-11-28T22:40:22.063Z,69.50
2017-11-28T22:42:49.153Z,68.40
2017-11-28T22:45:15.459Z,68.40
2017-11-28T22:47:42.596Z,69.00
2017-11-28T22:50:08.919Z,69.00
2017-11-28T22:52:35.221Z,70.00
2017-11-28T22:55:01.598Z,69.10
2017-11-28T22:57:28.839Z,69.50
2017-11-28T22:59:55.269Z,69.50
2017-11-28T23:02:22.529Z,69.80
2017-11-28T23:04:48.834Z,69.70
2017-11-28T23:07:15.155Z,70.30
2017-11-28T23:09:41.538Z,70.60
2017-11-28T23:12:08.723Z,70.20
2017-11-28T23:14:43.936Z,70.00
2017-11-28T23:17:10.294Z,70.00
2017-11-28T23:19:36.610Z,69.70
2017-11-28T23:22:03.038Z,69.70
2017-11-28T23:24:29.372Z,69.90
2017-11-28T23:26:55.697Z,69.50
2017-11-28T23:29:22.761Z,71.20
2017-11-28T23:31:49.262Z,71.20
2017-11-28T23:34:15.656Z,70.70
2017-11-28T23:36:42.966Z,68.90
2017-11-28T23:39:09.314Z,68.80
2017-11-28T23:41:36.335Z,69.30
2017-11-28T23:44:02.641Z,69.30
2017-11-28T23:46:29.173Z,69.80
2017-11-28T23:48:55.505Z,70.80
2017-11-28T23:51:21.942Z,69.70
2017-11-28T23:53:48.391Z,69.70
2017-11-28T23:56:14.713Z,69.80
2017-11-28T23:58:41.164Z,70.50
